CheckWX is a tool to help pilots better visualize weather data.  It is not intended as a substitute for an official pre-flight weather briefing.

18:35:47 UTC

EGHE METAR
St. Mary's Airport
St. Mary's, United Kingdom
Current

2 hours ago

EGHE 221650Z 14018KT 8000 NSC 11/09 Q1028
Observed
Feb-22 @ 16:50 UTC
Wind
  • 140° at 18 KTS
Visibility
7,998 meters
Flight Rules
MVFR
Cloud Levels
  • Clear skies
Temperature
11°C / 52°F
Dewpoint
C / 48°F
Humidity
88%
Altimeter
30.35" Hg
Pressure
1027.92 hPa
Previous

2 hours ago

EGHE 221620Z 14018KT 8000 NSC 11/09 Q1028
Observed
Feb-22 @ 16:20 UTC
Wind
  • 140° at 18 KTS
Visibility
7,998 meters
Flight Rules
MVFR
Cloud Levels
  • Clear skies
Temperature
11°C / 52°F
Dewpoint
C / 48°F
Humidity
88%
Altimeter
30.35" Hg
Pressure
1027.92 hPa
Previous

3 hours ago

EGHE 221550Z 14019KT 8000 NSC 11/09 Q1028
Observed
Feb-22 @ 15:50 UTC
Wind
  • 140° at 19 KTS
Visibility
7,998 meters
Flight Rules
MVFR
Cloud Levels
  • Clear skies
Temperature
11°C / 52°F
Dewpoint
C / 48°F
Humidity
88%
Altimeter
30.35" Hg
Pressure
1027.92 hPa